Bird In Hand, PA (17505)

8:21 PM EDT on August 21, 2014 (GMT -0400)
Leola | Change Station
CLOSE
Current Station
Personal Weather Station
Location: Leacock-Leola-Bareville, PA
Elevation: 420 ft
Nearby Weather Stations

Elev 420 ft 40.09 °N, 76.18 °W | Updated 11 seconds ago

Mostly Cloudy
Mostly Cloudy
75.7 °F
Feels Like 78 °F
N
3.1
Wind Variable Wind from WSW
Gusts 3.1 mph

Today
High -- | Low -- °F
--% Chance of Precip.
Yesterday
High -- | Low -- °F
Precip. -- in
6:21 AM 7:53 PM
Waning Crescent, 11% visible
Pressure 29.98 in
Visibility 10.0 miles
Clouds Scattered Clouds 3100 ft
Mostly Cloudy 4400 ft
Mostly Cloudy 9000 ft
Heat Index 78 °F
Dew Point 54 °F
Humidity 47%
Rainfall -999.00 in
Snow Depth Not available.
UV 0 out of 12
Pollen 8.60 out of 12
Ozone Good
PM2.5 Moderate
Flu Activity Not available.
METAR KLNS 212353Z 22006KT 10SM SCT031 BKN044 BKN090 24/19 A2999 RMK AO2 LTG DSNT N AND NE SLP152 60000 T02440194 10283 20244 55002

More Conditions Fewer Conditions

Pressure 29.98 in
Visibility 10.0 miles
Clouds Scattered Clouds 3100 ft
Mostly Cloudy 4400 ft
Mostly Cloudy 9000 ft
Heat Index 78 °F
Dew Point 54 °F
Humidity 47%
Rainfall -999.00 in
Snow Depth Not available.
UV 0 out of 12
Pollen 8.60 out of 12
Ozone Good
PM2.5 Moderate
Flu Activity Not available.
METAR KLNS 212353Z 22006KT 10SM SCT031 BKN044 BKN090 24/19 A2999 RMK AO2 LTG DSNT N AND NE SLP152 60000 T02440194 10283 20244 55002

More Conditions Fewer Conditions

10-Day Weather Forecast

Almanac

Astronomy

Aug. 21, 2014 Rise Set
Actual Time 6:21 AM EDT 7:53 PM EDT
Civil Twilight 5:53 AM EDT 8:21 PM EDT
Nautical Twilight 5:18 AM EDT 8:55 PM EDT
Astronomical Twilight 4:42 AM EDT 9:32 PM EDT
Moon 2:50 AM EDT (8/21) 5:20 PM EDT (8/21)
Length of Visible Light 14h 28m
Length of Day
13h 31m
Tomorrow will be 2m 25s shorter.
Waning Crescent, 11% of the Moon is Illuminated
Today
Waning Crescent
Aug 25
New
Sep 2
First Quarter
Sep 8
Full
Sep 15
Last Quarter

Today's Extremes

State Highs State Lows

Community

WunderPhotos

Upload Photos

1,746,075 photos uploaded!

Nearby

Air Quality

  Air Quality AQ Index Pollutant
Yesterday Moderate
PM2.5
Yesterday Good
OZONE
Current Moderate
PM2.5
Current Good
OZONE
Thursday Moderate
OZONE
Thursday Moderate
PM2.5
Friday Moderate
PM2.5
Friday Moderate
OZONE
Saturday Good
PM2.5
Saturday Good
OZONE

Snow Depth

Station Depth Elevation
No new snow has been reported.

Earthquake Activity

City Distance Mag. Time & Date
No recent earthquake activity has been reported nearby.
Minimum magnitude displayed is 2.5.

Coastal Water Temperatures

Place Temperature
No Stations Reporting

Nearby Weather Stations